Time;durP1;ratioP1;P1;durP2;ratioP2;P2;SDS_P1;SDS_P2;PMS_P1;PMS_P2;Temp;Humidity;BMP_temperature;BMP_pressure;BME280_temperature;BME280_humidity;BME280_pressure;Samples;Min_cycle;Max_cycle;Signal;HPM_P1;HPM_P2
2021/03/06 00:01:17;;;;;;;9.27;6.60;;;1.10;99.90;;;;;;8359447;28;20036;-71
2021/03/06 00:05:20;;;;;;;7.85;4.50;;;1.10;99.90;;;;;;8358789;28;20029;-71
2021/03/06 00:09:20;;;;;;;9.95;5.13;;;1.10;99.90;;;;;;8358775;28;20384;-70
2021/03/06 00:13:21;;;;;;;7.25;4.97;;;1.00;99.90;;;;;;8359861;28;20029;-70
2021/03/06 00:17:21;;;;;;;7.20;4.80;;;0.90;99.90;;;;;;8359528;28;20071;-70
2021/03/06 00:21:22;;;;;;;8.15;4.97;;;0.70;99.90;;;;;;8359302;28;20475;-71
2021/03/06 00:25:23;;;;;;;6.25;4.53;;;0.50;99.90;;;;;;8358785;28;20472;-70
2021/03/06 00:29:25;;;;;;;10.23;5.70;;;0.30;99.90;;;;;;8356736;28;20060;-71
2021/03/06 00:33:26;;;;;;;8.98;4.95;;;0.10;99.90;;;;;;8354362;28;20417;-72
2021/03/06 00:37:26;;;;;;;9.20;5.10;;;0.00;99.90;;;;;;8354451;28;20125;-71
2021/03/06 00:41:27;;;;;;;12.15;5.13;;;-0.10;99.90;;;;;;8336567;28;20028;-70
2021/03/06 00:45:28;;;;;;;8.13;5.57;;;-0.20;99.90;;;;;;8354958;28;20571;-70
2021/03/06 00:49:28;;;;;;;13.98;7.00;;;-0.30;99.90;;;;;;8354864;28;20026;-71
2021/03/06 00:53:29;;;;;;;9.68;5.40;;;-0.40;99.90;;;;;;8354694;28;20484;-71
2021/03/06 00:57:29;;;;;;;8.82;5.30;;;-0.50;99.90;;;;;;8354875;28;20036;-70
2021/03/06 01:01:30;;;;;;;7.72;5.32;;;-0.50;99.90;;;;;;8354882;28;20479;-70
2021/03/06 01:05:31;;;;;;;7.78;5.15;;;-0.60;99.90;;;;;;8355545;28;20037;-71
2021/03/06 01:09:32;;;;;;;7.35;5.22;;;-0.70;99.90;;;;;;8359526;28;20369;-71
2021/03/06 01:13:32;;;;;;;9.38;5.15;;;-0.80;99.90;;;;;;8358888;28;20059;-70
2021/03/06 01:17:33;;;;;;;9.68;5.70;;;-0.80;99.90;;;;;;8358918;28;20036;-70
2021/03/06 01:21:34;;;;;;;6.90;5.32;;;-1.00;99.90;;;;;;8360502;28;20112;-72
2021/03/06 01:25:35;;;;;;;8.45;5.07;;;-0.90;99.90;;;;;;8342328;28;20021;-71
2021/03/06 01:29:35;;;;;;;7.75;5.47;;;-1.00;99.90;;;;;;8359755;28;20025;-71
2021/03/06 01:33:36;;;;;;;7.90;5.50;;;-1.20;99.90;;;;;;8359140;28;20032;-72
2021/03/06 01:37:37;;;;;;;8.63;5.32;;;-1.30;99.90;;;;;;8359037;28;20032;-71
2021/03/06 01:41:38;;;;;;;9.68;5.53;;;-1.20;99.90;;;;;;8341717;28;20029;-71
2021/03/06 01:45:39;;;;;;;8.18;5.90;;;-1.30;99.90;;;;;;8342228;28;20122;-72
2021/03/06 01:49:40;;;;;;;9.63;5.72;;;-1.50;99.90;;;;;;8342237;28;20111;-70
2021/03/06 01:53:41;;;;;;;11.70;6.15;;;-1.60;99.90;;;;;;8359127;28;20029;-71
2021/03/06 01:57:43;;;;;;;7.25;5.40;;;-1.50;99.90;;;;;;8341304;28;20086;-70
2021/03/06 02:01:43;;;;;;;9.68;6.05;;;-1.60;99.90;;;;;;8358952;28;20037;-70
2021/03/06 02:05:44;;;;;;;11.00;6.70;;;-1.80;99.90;;;;;;8361077;28;20032;-70
2021/03/06 02:09:45;;;;;;;10.50;6.50;;;-1.90;99.90;;;;;;8362058;28;20104;-71
2021/03/06 02:14:11;;;;;;;9.23;6.50;;;-1.70;99.90;;;;;;8362594;28;20059;-70
2021/03/06 02:18:56;;;;;;;12.40;7.25;;;-1.80;99.90;;;;;;8361291;28;20391;-71
2021/03/06 02:23:10;;;;;;;9.90;6.53;;;-1.90;99.90;;;;;;8211806;28;20027;-70
2021/03/06 02:27:33;;;;;;;12.40;6.18;;;-1.90;99.90;;;;;;8300802;28;20033;-70
2021/03/06 02:31:38;;;;;;;11.90;7.35;;;-1.90;99.90;;;;;;8361673;28;20062;-70
2021/03/06 02:35:42;;;;;;;11.57;6.80;;;-1.90;99.90;;;;;;8361248;28;20029;-70
2021/03/06 02:39:45;;;;;;;11.63;7.18;;;-2.00;99.90;;;;;;8361139;28;20021;-70
2021/03/06 02:43:45;;;;;;;11.57;7.22;;;-2.00;99.90;;;;;;8361686;28;20052;-70
2021/03/06 02:47:47;;;;;;;11.13;6.72;;;-2.00;99.90;;;;;;8361520;28;20025;-71
2021/03/06 02:51:48;;;;;;;9.85;6.60;;;-2.20;99.90;;;;;;8361267;28;20033;-70
2021/03/06 02:55:49;;;;;;;11.57;6.85;;;-2.20;99.90;;;;;;8343439;28;20082;-70
2021/03/06 03:00:08;;;;;;;9.52;6.82;;;-2.10;99.90;;;;;;8368412;28;20036;-70
2021/03/06 03:04:25;;;;;;;10.55;6.60;;;-2.20;99.90;;;;;;8370551;28;20029;-71
2021/03/06 03:08:30;;;;;;;10.55;6.93;;;-2.20;99.90;;;;;;8360234;28;20021;-70
2021/03/06 03:12:35;;;;;;;11.32;6.82;;;-2.10;99.90;;;;;;8352690;28;20517;-70
2021/03/06 03:16:44;;;;;;;12.18;7.13;;;-2.20;99.90;;;;;;8372384;28;20016;-71
2021/03/06 03:20:55;;;;;;;10.83;6.00;;;-2.30;99.90;;;;;;8365931;28;20100;-71
2021/03/06 03:24:58;;;;;;;10.40;6.75;;;-2.30;99.90;;;;;;8376828;28;20281;-70
2021/03/06 03:29:00;;;;;;;11.30;6.45;;;-2.60;99.90;;;;;;8392280;28;20020;-72
2021/03/06 03:33:04;;;;;;;11.15;6.60;;;-2.60;99.90;;;;;;8387091;28;20029;-68
2021/03/06 03:37:07;;;;;;;11.65;6.95;;;-2.60;99.90;;;;;;8359498;28;20017;-68
2021/03/06 03:41:11;;;;;;;12.63;6.95;;;-2.70;99.90;;;;;;8359817;28;20079;-69
2021/03/06 03:45:13;;;;;;;11.25;6.47;;;-2.60;99.90;;;;;;8360027;28;20043;-68
2021/03/06 03:49:20;;;;;;;13.93;7.22;;;-2.60;99.90;;;;;;8359693;28;20080;-68
2021/03/06 03:53:21;;;;;;;9.07;5.85;;;-2.60;99.90;;;;;;8359844;28;20078;-68
2021/03/06 03:57:22;;;;;;;10.98;6.65;;;-2.60;99.90;;;;;;8359561;28;20031;-69
2021/03/06 04:01:22;;;;;;;9.50;6.60;;;-2.70;99.90;;;;;;8359539;28;20025;-69
2021/03/06 04:05:23;;;;;;;11.43;6.57;;;-2.70;99.90;;;;;;8358410;28;20495;-69
2021/03/06 04:09:24;;;;;;;11.70;7.00;;;-2.90;99.90;;;;;;8340916;28;20025;-68
2021/03/06 04:13:25;;;;;;;11.23;6.82;;;-2.90;99.90;;;;;;8359523;28;20102;-68
2021/03/06 04:17:25;;;;;;;11.98;6.35;;;-3.00;99.90;;;;;;8357437;28;20017;-69
2021/03/06 04:21:26;;;;;;;12.40;6.93;;;-2.90;99.90;;;;;;8339890;28;20510;-69
2021/03/06 04:25:27;;;;;;;11.32;6.97;;;-2.90;99.90;;;;;;8357597;28;20035;-68
2021/03/06 04:29:28;;;;;;;11.52;7.13;;;-3.00;99.90;;;;;;8340787;28;20032;-69
2021/03/06 04:33:28;;;;;;;13.93;7.18;;;-3.00;99.90;;;;;;8340753;28;20108;-69
2021/03/06 04:37:29;;;;;;;12.40;7.13;;;-3.00;99.90;;;;;;8357995;28;20033;-69
2021/03/06 04:41:29;;;;;;;12.77;7.75;;;-3.00;99.90;;;;;;8363323;28;20025;-69
2021/03/06 04:45:30;;;;;;;14.30;8.10;;;-3.10;99.90;;;;;;8372774;28;20040;-69
2021/03/06 04:49:32;;;;;;;13.48;7.60;;;-3.00;99.90;;;;;;8375764;28;20108;-69
2021/03/06 04:53:32;;;;;;;12.45;7.20;;;-3.10;99.90;;;;;;8369151;28;20021;-69
2021/03/06 04:57:33;;;;;;;13.02;7.65;;;-2.90;99.90;;;;;;8362601;28;20032;-69
2021/03/06 05:01:34;;;;;;;12.65;7.47;;;-3.20;99.90;;;;;;8348063;28;20076;-72
2021/03/06 05:05:34;;;;;;;13.30;7.20;;;-3.20;99.90;;;;;;8381646;28;20017;-68
2021/03/06 05:09:35;;;;;;;15.38;8.25;;;-3.30;99.90;;;;;;8371757;28;20660;-69
2021/03/06 05:13:36;;;;;;;13.77;8.25;;;-3.10;99.90;;;;;;8370660;28;20090;-69
2021/03/06 05:17:37;;;;;;;13.02;7.40;;;-3.20;99.90;;;;;;8344693;28;20399;-68
2021/03/06 05:21:37;;;;;;;12.68;8.20;;;-3.30;99.90;;;;;;8362352;28;20051;-70
2021/03/06 05:25:38;;;;;;;15.93;7.82;;;-3.20;99.90;;;;;;8362844;28;20159;-70
2021/03/06 05:29:38;;;;;;;15.98;8.27;;;-3.20;99.90;;;;;;8363591;28;20079;-71
2021/03/06 05:33:39;;;;;;;14.98;8.38;;;-3.10;99.90;;;;;;8362741;28;20036;-72
2021/03/06 05:37:39;;;;;;;15.77;8.50;;;-3.00;99.90;;;;;;8362224;28;20029;-70
2021/03/06 05:41:40;;;;;;;13.80;8.15;;;-3.00;99.90;;;;;;8363720;28;20116;-70
2021/03/06 05:45:47;;;;;;;19.83;8.88;;;-2.70;99.90;;;;;;8365326;28;20522;-70
2021/03/06 05:49:48;;;;;;;13.77;8.10;;;-2.80;99.90;;;;;;8365915;28;20103;-70
2021/03/06 05:53:52;;;;;;;16.02;8.63;;;-2.90;99.90;;;;;;8361129;28;20035;-70
2021/03/06 05:57:56;;;;;;;14.55;8.32;;;-2.80;99.90;;;;;;8353768;28;20029;-70
2021/03/06 06:01:58;;;;;;;15.80;8.10;;;-3.00;99.90;;;;;;8360898;28;20025;-70
2021/03/06 06:05:59;;;;;;;18.92;8.60;;;-3.10;99.90;;;;;;8361257;28;20033;-70
2021/03/06 06:10:00;;;;;;;15.25;8.13;;;-3.20;99.90;;;;;;8360568;28;20033;-70
2021/03/06 06:14:02;;;;;;;16.10;7.70;;;-3.00;99.90;;;;;;8343310;28;20035;-70
2021/03/06 06:18:03;;;;;;;13.98;7.82;;;-2.90;99.90;;;;;;8358055;28;20028;-72
2021/03/06 06:22:30;;;;;;;24.92;12.48;;;-2.90;99.90;;;;;;8353386;28;20114;-72
2021/03/06 06:26:31;;;;;;;17.52;9.57;;;0.70;99.90;;;;;;8352455;28;20044;-72
2021/03/06 06:30:33;;;;;;;17.58;10.98;;;2.80;99.90;;;;;;8358956;28;20029;-70
2021/03/06 06:34:35;;;;;;;15.65;9.20;;;2.80;99.90;;;;;;8350874;28;20691;-71
2021/03/06 06:38:43;;;;;;;16.63;11.18;;;2.90;99.90;;;;;;8359384;28;20024;-71
2021/03/06 06:42:44;;;;;;;16.17;10.05;;;2.90;99.90;;;;;;8375924;28;20385;-70
2021/03/06 06:46:45;;;;;;;15.77;10.15;;;3.10;99.90;;;;;;8339452;28;20032;-70
2021/03/06 06:50:45;;;;;;;12.25;8.82;;;3.30;99.90;;;;;;8356213;28;20029;-71
2021/03/06 06:54:55;;;;;;;13.20;8.52;;;3.70;99.90;;;;;;8356967;28;20108;-72
2021/03/06 06:59:08;;;;;;;13.23;9.00;;;3.90;99.90;;;;;;8359158;28;20503;-72
2021/03/06 07:03:09;;;;;;;13.98;8.85;;;3.50;99.90;;;;;;8353561;28;20032;-70
2021/03/06 07:07:13;;;;;;;12.13;7.80;;;3.60;99.90;;;;;;8351174;28;20135;-70
2021/03/06 07:11:26;;;;;;;13.07;8.15;;;3.40;99.90;;;;;;8359884;28;20388;-73
2021/03/06 07:15:29;;;;;;;12.60;8.50;;;3.50;99.90;;;;;;8355468;28;20025;-70
2021/03/06 07:19:31;;;;;;;14.57;9.68;;;3.10;99.90;;;;;;8323807;28;20031;-70
2021/03/06 07:23:34;;;;;;;12.52;8.45;;;2.80;99.90;;;;;;8346894;28;20021;-72
2021/03/06 07:27:35;;;;;;;13.48;8.82;;;2.60;99.90;;;;;;8352311;28;20032;-72
2021/03/06 07:31:38;;;;;;;15.15;9.02;;;1.80;99.90;;;;;;8346122;28;20028;-72
2021/03/06 07:35:41;;;;;;;16.48;8.50;;;1.40;99.90;;;;;;8352092;28;20127;-72
2021/03/06 07:39:47;;;;;;;13.60;8.68;;;1.20;99.90;;;;;;8336429;28;20435;-72
2021/03/06 07:43:53;;;;;;;10.48;5.70;;;0.90;99.90;;;;;;8334335;28;20519;-72
2021/03/06 07:48:11;;;;;;;17.63;10.07;;;0.70;99.90;;;;;;8354770;28;20025;-71
2021/03/06 07:52:12;;;;;;;17.50;9.52;;;0.60;99.90;;;;;;8352074;28;20040;-71
2021/03/06 07:56:13;;;;;;;10.13;6.05;;;1.00;99.90;;;;;;8366911;28;20013;-74
2021/03/06 08:00:14;;;;;;;14.63;9.80;;;1.00;99.90;;;;;;8374255;28;20058;-73
2021/03/06 08:04:34;;;;;;;15.90;8.77;;;0.50;99.90;;;;;;8354243;28;20078;-69
2021/03/06 08:08:40;;;;;;;13.20;7.38;;;0.80;99.90;;;;;;8353218;28;20426;-70
2021/03/06 08:12:41;;;;;;;16.40;9.70;;;1.20;99.90;;;;;;8360283;28;20043;-71
2021/03/06 08:16:42;;;;;;;15.30;9.43;;;1.10;99.90;;;;;;8343062;28;20395;-71
2021/03/06 08:20:42;;;;;;;9.23;4.10;;;1.50;99.90;;;;;;8347227;28;20025;-76
2021/03/06 08:24:44;;;;;;;7.70;3.90;;;1.50;99.90;;;;;;8361195;28;20518;-70
2021/03/06 08:28:44;;;;;;;14.20;8.60;;;0.60;99.90;;;;;;8360378;28;20033;-69
2021/03/06 08:32:45;;;;;;;17.40;9.32;;;0.50;99.90;;;;;;8368993;28;20155;-68
2021/03/06 08:36:45;;;;;;;11.80;6.60;;;0.90;99.90;;;;;;8362128;28;20032;-69
2021/03/06 08:40:46;;;;;;;10.65;6.13;;;1.10;99.90;;;;;;8357624;28;20017;-66
2021/03/06 08:44:48;;;;;;;9.88;3.92;;;1.20;99.90;;;;;;9030153;22;20032;-94
2021/03/06 08:53:54;;;;;;;11.73;7.20;;;1.40;99.90;;;;;;8361962;28;20038;-94
2021/03/06 08:58:18;;;;;;;9.05;5.05;;;1.70;99.90;;;;;;8338585;28;20021;-96
2021/03/06 09:02:21;;;;;;;9.25;4.97;;;1.90;99.90;;;;;;8406586;28;20004;-94
2021/03/06 09:06:46;;;;;;;7.00;4.53;;;2.00;99.90;;;;;;8394297;28;20001;-96
2021/03/06 09:10:47;;;;;;;13.48;6.85;;;1.90;99.90;;;;;;8390603;28;20019;-96
2021/03/06 09:14:51;;;;;;;9.55;5.43;;;1.90;99.90;;;;;;8392595;28;20017;-95
2021/03/06 09:18:54;;;;;;;12.25;7.25;;;2.20;99.90;;;;;;8374959;28;19993;-95
2021/03/06 09:28:33;;;;;;;5.22;3.35;;;2.30;99.90;;;;;;8407230;28;20020;-95
2021/03/06 09:32:47;;;;;;;;;;;;;;;;;;;;;
2021/03/06 09:37:19;;;;;;;7.90;4.25;;;2.50;99.90;;;;;;8411580;28;20009;-94
2021/03/06 09:41:22;;;;;;;5.72;3.60;;;2.30;99.90;;;;;;8385905;28;20001;-96
2021/03/06 09:45:46;;;;;;;7.28;5.07;;;2.50;99.90;;;;;;8398368;28;20072;-95
2021/03/06 09:54:57;;;;;;;8.07;5.55;;;3.00;99.90;;;;;;8434613;22;20082;-66
2021/03/06 09:59:05;;;;;;;9.65;5.50;;;3.40;99.90;;;;;;8402975;28;20410;-64
2021/03/06 10:03:06;;;;;;;9.48;6.38;;;3.90;99.90;;;;;;8390621;28;20024;-64
2021/03/06 10:07:09;;;;;;;12.25;6.35;;;3.90;99.90;;;;;;8396389;28;20058;-64
2021/03/06 10:11:12;;;;;;;10.13;6.25;;;4.00;99.90;;;;;;8393694;28;20058;-64
2021/03/06 10:15:15;;;;;;;7.43;3.80;;;3.90;99.90;;;;;;8393053;28;20039;-66
2021/03/06 10:19:17;;;;;;;11.07;6.00;;;4.30;99.90;;;;;;8393948;28;20378;-66
2021/03/06 10:23:32;;;;;;;10.80;6.55;;;4.10;99.90;;;;;;8391087;28;20036;-64
2021/03/06 10:27:48;;;;;;;9.73;6.00;;;4.40;99.90;;;;;;8392486;28;20025;-64
2021/03/06 10:31:56;;;;;;;7.93;5.07;;;4.60;99.90;;;;;;8390904;28;20032;-63
2021/03/06 10:35:57;;;;;;;7.38;4.85;;;4.50;99.90;;;;;;8389055;28;20478;-65
2021/03/06 10:40:01;;;;;;;6.50;4.68;;;4.90;99.90;;;;;;8388795;28;20031;-63
2021/03/06 10:44:01;;;;;;;6.97;4.60;;;5.40;99.90;;;;;;8380549;28;20044;-62
2021/03/06 10:48:03;;;;;;;8.00;5.28;;;5.80;99.90;;;;;;8390953;28;20041;-63
2021/03/06 10:52:05;;;;;;;8.68;4.93;;;6.00;99.90;;;;;;8390097;28;20417;-64
2021/03/06 10:56:19;;;;;;;6.05;4.13;;;6.50;99.90;;;;;;8390939;28;20055;-61
2021/03/06 11:00:25;;;;;;;6.75;4.43;;;6.60;99.90;;;;;;8473402;27;20801;-62
2021/03/06 11:04:31;;;;;;;2.47;1.58;;;7.50;99.90;;;;;;8480688;27;20110;-62
2021/03/06 11:08:32;;;;;;;3.38;2.70;;;8.50;95.80;;;;;;8489708;27;20066;-63
2021/03/06 11:12:33;;;;;;;5.85;3.92;;;10.20;94.10;;;;;;8492886;27;20020;-62
2021/03/06 11:16:38;;;;;;;6.35;4.40;;;8.80;93.20;;;;;;8490496;27;20106;-63
2021/03/06 11:20:39;;;;;;;;;;;12.80;83.50;;;;;;8470351;27;20091;-63
2021/03/06 11:24:40;;;;;;;214.47;202.27;;;16.40;63.80;;;;;;8467039;27;20390;-63
2021/03/06 11:28:40;;;;;;;135.90;128.40;;;17.20;53.50;;;;;;8474785;27;20023;-63
2021/03/06 11:32:41;;;;;;;119.05;112.55;;;18.00;47.10;;;;;;8477648;27;20038;-63
2021/03/06 11:36:41;;;;;;;141.38;133.48;;;16.50;51.40;;;;;;8469860;28;20115;-63
2021/03/06 11:40:46;;;;;;;151.45;143.40;;;17.20;48.80;;;;;;8469050;27;20019;-63
2021/03/06 11:44:47;;;;;;;113.63;107.20;;;17.90;48.40;;;;;;8472836;27;20023;-63
2021/03/06 11:48:48;;;;;;;41.13;17.55;;;17.60;46.20;;;;;;8465516;27;20050;-65
2021/03/06 11:52:49;;;;;;;52.33;49.22;;;17.20;44.90;;;;;;8473655;27;20039;-63
2021/03/06 11:56:49;;;;;;;104.80;97.47;;;18.10;46.30;;;;;;8471446;28;20496;-63
2021/03/06 12:00:50;;;;;;;79.72;74.93;;;16.10;45.80;;;;;;8457235;27;20069;-62
2021/03/06 12:04:51;;;;;;;69.95;65.57;;;12.80;52.60;;;;;;8466437;27;20027;-62
2021/03/06 12:08:51;;;;;;;53.90;48.95;;;11.00;58.60;;;;;;8460918;27;20059;-60
2021/03/06 12:12:52;;;;;;;79.22;21.42;;;11.90;56.90;;;;;;8453071;27;20036;-62
2021/03/06 12:16:52;;;;;;;96.30;24.92;;;11.90;56.60;;;;;;8450683;27;20028;-61
2021/03/06 12:20:53;;;;;;;88.25;23.70;;;13.20;53.40;;;;;;8447130;27;20028;-62
2021/03/06 12:24:54;;;;;;;84.75;23.02;;;14.10;51.80;;;;;;8459069;27;20088;-62
2021/03/06 12:28:55;;;;;;;56.60;31.88;;;13.30;54.80;;;;;;8448598;27;20115;-63
2021/03/06 12:32:55;;;;;;;45.50;41.80;;;17.90;46.60;;;;;;8461627;27;20096;-63
2021/03/06 12:36:56;;;;;;;37.70;35.30;;;17.10;43.40;;;;;;8458244;27;20103;-62
2021/03/06 12:40:56;;;;;;;29.60;22.48;;;14.40;50.20;;;;;;8461190;27;20032;-61
2021/03/06 12:44:57;;;;;;;38.47;35.50;;;13.90;52.40;;;;;;8445511;27;20109;-62
2021/03/06 12:48:58;;;;;;;49.38;46.28;;;14.00;51.30;;;;;;8465743;27;20090;-63
2021/03/06 12:52:58;;;;;;;58.25;54.90;;;14.60;51.10;;;;;;8473092;27;20056;-62
2021/03/06 12:56:59;;;;;;;76.43;72.25;;;17.40;46.40;;;;;;8446806;27;20024;-63
2021/03/06 13:01:00;;;;;;;58.95;55.58;;;18.10;44.70;;;;;;8448368;28;20031;-63
2021/03/06 13:05:01;;;;;;;51.83;48.70;;;14.50;50.90;;;;;;8444307;28;20045;-63
2021/03/06 13:09:02;;;;;;;86.20;25.77;;;19.30;45.70;;;;;;8448386;28;20659;-64
2021/03/06 13:13:02;;;;;;;59.45;31.05;;;23.50;36.30;;;;;;8444123;28;20050;-64
2021/03/06 13:17:03;;;;;;;47.35;39.65;;;23.70;35.20;;;;;;8461454;27;20031;-63
2021/03/06 13:21:04;;;;;;;72.50;68.35;;;21.30;33.10;;;;;;8453815;28;20389;-63
2021/03/06 13:25:06;;;;;;;81.93;77.20;;;16.70;43.30;;;;;;8461149;28;20084;-63
2021/03/06 13:29:07;;;;;;;71.68;67.70;;;16.40;42.60;;;;;;8459634;28;20082;-63
2021/03/06 13:33:07;;;;;;;48.10;45.38;;;17.30;42.30;;;;;;8453187;28;20401;-63
2021/03/06 13:37:08;;;;;;;49.92;47.05;;;18.40;38.20;;;;;;8453893;27;20110;-63
2021/03/06 13:41:09;;;;;;;39.67;37.50;;;17.50;41.90;;;;;;8460721;27;20085;-63
2021/03/06 13:45:11;;;;;;;51.63;48.70;;;18.20;40.40;;;;;;8460666;27;21043;-63
2021/03/06 13:49:11;;;;;;;39.65;37.33;;;17.30;40.50;;;;;;8452388;27;20069;-62
2021/03/06 13:53:12;;;;;;;41.13;38.38;;;15.30;43.70;;;;;;8465655;27;20023;-63
2021/03/06 13:57:12;;;;;;;2.45;1.77;;;15.90;42.40;;;;;;8461197;27;20023;-62
2021/03/06 14:01:13;;;;;;;3.58;2.60;;;13.20;46.40;;;;;;8425663;28;20024;-63
2021/03/06 14:05:13;;;;;;;4.15;2.92;;;13.50;46.60;;;;;;8425361;28;20389;-63
2021/03/06 14:09:14;;;;;;;3.83;2.97;;;12.90;47.80;;;;;;8427337;28;20494;-63
2021/03/06 14:13:15;;;;;;;3.92;3.05;;;14.20;47.00;;;;;;8444154;28;20030;-64
2021/03/06 14:17:16;;;;;;;3.22;2.72;;;21.10;39.00;;;;;;8446031;28;20035;-64
2021/03/06 14:21:16;;;;;;;8.23;3.15;;;24.20;30.30;;;;;;8431426;28;20028;-63
2021/03/06 14:25:17;;;;;;;2.00;1.77;;;19.60;35.60;;;;;;8448215;27;20415;-63
2021/03/06 14:29:17;;;;;;;5.13;3.05;;;14.20;43.10;;;;;;8445327;28;20089;-64
2021/03/06 14:33:18;;;;;;;3.08;2.55;;;10.50;51.30;;;;;;8448535;28;20123;-64
2021/03/06 14:37:19;;;;;;;3.53;2.70;;;10.90;51.90;;;;;;8456227;28;20039;-64
2021/03/06 14:41:19;;;;;;;2.58;1.77;;;11.80;51.20;;;;;;8451480;28;20019;-63
2021/03/06 14:45:20;;;;;;;5.85;2.42;;;10.00;50.00;;;;;;8435477;28;20449;-63
2021/03/06 14:49:20;;;;;;;3.50;2.40;;;8.30;56.50;;;;;;8443553;28;20114;-63
2021/03/06 14:53:21;;;;;;;3.78;2.60;;;7.30;58.60;;;;;;8450304;28;20385;-63
2021/03/06 14:57:22;;;;;;;3.83;2.50;;;7.30;63.30;;;;;;8439438;28;20058;-63
2021/03/06 15:01:23;;;;;;;3.75;2.80;;;8.10;58.00;;;;;;8443091;28;20529;-63
2021/03/06 15:05:26;;;;;;;4.00;2.60;;;7.80;57.20;;;;;;8453346;28;20034;-64
2021/03/06 15:09:26;;;;;;;4.53;2.50;;;7.90;58.60;;;;;;8450375;28;20130;-63
2021/03/06 15:13:27;;;;;;;4.80;3.25;;;7.50;60.00;;;;;;8444895;28;20097;-63
2021/03/06 15:17:27;;;;;;;3.85;2.63;;;7.00;60.30;;;;;;8443554;28;20034;-64
2021/03/06 15:21:28;;;;;;;3.75;2.47;;;6.90;62.10;;;;;;8457058;28;20481;-64
2021/03/06 15:25:29;;;;;;;3.05;1.83;;;6.60;61.90;;;;;;8455099;28;20016;-63
2021/03/06 15:29:29;;;;;;;6.80;2.17;;;6.30;62.30;;;;;;8436572;28;20024;-62
2021/03/06 15:33:30;;;;;;;4.47;1.85;;;6.00;62.10;;;;;;8421702;28;20059;-62
2021/03/06 15:37:30;;;;;;;1.67;1.45;;;6.10;64.30;;;;;;8422290;28;20032;-64
2021/03/06 15:41:31;;;;;;;4.25;3.00;;;6.00;64.80;;;;;;8423377;28;20119;-64
2021/03/06 15:45:32;;;;;;;10.13;2.00;;;6.20;65.90;;;;;;8444131;28;20051;-64
2021/03/06 15:49:33;;;;;;;3.35;2.47;;;6.40;64.50;;;;;;8445774;28;20024;-64
2021/03/06 15:53:33;;;;;;;6.00;2.95;;;6.10;65.10;;;;;;8451419;28;20024;-64
2021/03/06 15:57:34;;;;;;;4.30;3.05;;;6.00;65.90;;;;;;8450920;28;20057;-63
2021/03/06 16:01:38;;;;;;;5.32;3.47;;;6.00;66.00;;;;;;8454398;28;20020;-63
2021/03/06 16:05:40;;;;;;;4.05;2.58;;;6.30;65.20;;;;;;8453551;28;20026;-63
2021/03/06 16:09:40;;;;;;;4.32;2.70;;;6.50;64.00;;;;;;8447218;28;20524;-63
2021/03/06 16:13:41;;;;;;;4.97;2.65;;;6.30;63.40;;;;;;8430121;28;20439;-63
2021/03/06 16:17:41;;;;;;;4.95;2.50;;;6.30;63.60;;;;;;8435040;28;20036;-64
2021/03/06 16:21:42;;;;;;;3.60;2.42;;;6.30;64.80;;;;;;8437482;27;20038;-64
2021/03/06 16:25:43;;;;;;;4.35;2.60;;;6.40;64.40;;;;;;8430069;27;20072;-64
2021/03/06 16:29:43;;;;;;;3.25;2.30;;;6.50;64.30;;;;;;8433307;28;20042;-64
2021/03/06 16:33:44;;;;;;;3.17;2.20;;;6.70;65.70;;;;;;8434288;28;20432;-64
2021/03/06 16:37:44;;;;;;;3.70;2.40;;;7.00;62.60;;;;;;8424631;28;20036;-63
2021/03/06 16:41:45;;;;;;;3.15;2.10;;;6.80;64.00;;;;;;8429671;28;20499;-64
2021/03/06 16:45:46;;;;;;;3.92;2.65;;;6.20;65.30;;;;;;8451092;27;20024;-64
2021/03/06 16:49:46;;;;;;;3.38;2.40;;;5.60;67.90;;;;;;8432402;22;20669;-69
2021/03/06 16:53:47;;;;;;;3.65;2.55;;;5.10;69.80;;;;;;8351691;28;20104;-69
2021/03/06 16:57:48;;;;;;;2.90;2.50;;;4.70;72.10;;;;;;8356004;28;20037;-69
2021/03/06 17:01:49;;;;;;;5.05;2.60;;;4.40;72.90;;;;;;8354240;28;20029;-69
2021/03/06 17:05:49;;;;;;;3.47;2.45;;;4.20;74.10;;;;;;8355905;28;20063;-69
2021/03/06 17:09:50;;;;;;;3.88;2.38;;;4.00;74.70;;;;;;8354326;28;20725;-69
2021/03/06 17:13:50;;;;;;;3.75;2.30;;;3.80;75.90;;;;;;8358289;28;20029;-69
2021/03/06 17:17:51;;;;;;;4.25;2.60;;;3.60;76.10;;;;;;8341374;28;20098;-69
2021/03/06 17:21:51;;;;;;;3.95;2.60;;;3.40;78.50;;;;;;8362122;28;20024;-69
2021/03/06 17:25:52;;;;;;;5.82;3.00;;;3.30;85.50;;;;;;8355793;28;20047;-69
2021/03/06 17:29:53;;;;;;;12.68;8.82;;;3.00;82.10;;;;;;8347032;28;20021;-69
2021/03/06 17:33:53;;;;;;;3.85;2.75;;;2.80;85.40;;;;;;8341506;28;20032;-69
2021/03/06 17:37:54;;;;;;;3.53;2.25;;;2.50;87.00;;;;;;8355606;28;20394;-69
2021/03/06 17:41:54;;;;;;;4.38;3.25;;;2.20;89.20;;;;;;8354797;28;20113;-69
2021/03/06 17:45:55;;;;;;;4.25;2.97;;;2.00;90.30;;;;;;8358123;28;20375;-69
2021/03/06 17:49:55;;;;;;;4.05;3.35;;;1.80;91.30;;;;;;8359235;28;20033;-69
2021/03/06 17:53:56;;;;;;;4.43;3.65;;;1.70;91.70;;;;;;8359273;28;20021;-69
2021/03/06 17:57:57;;;;;;;3.92;2.85;;;1.60;92.90;;;;;;8359288;28;20089;-69
2021/03/06 18:01:58;;;;;;;3.97;2.53;;;1.60;93.50;;;;;;8339646;28;20033;-71
2021/03/06 18:05:59;;;;;;;6.68;3.28;;;1.40;94.20;;;;;;8351389;28;20407;-72
2021/03/06 18:09:59;;;;;;;5.97;3.25;;;1.20;94.70;;;;;;8343629;28;20033;-70
2021/03/06 18:14:00;;;;;;;4.93;3.10;;;1.10;95.00;;;;;;8323109;28;20034;-71
2021/03/06 18:18:00;;;;;;;5.85;3.30;;;1.10;96.00;;;;;;8341246;28;20060;-71
2021/03/06 18:22:01;;;;;;;6.50;2.97;;;1.10;96.50;;;;;;8340273;28;20106;-72
2021/03/06 18:26:02;;;;;;;4.22;2.63;;;0.90;97.50;;;;;;8345755;28;20032;-70
2021/03/06 18:30:06;;;;;;;4.40;2.90;;;1.00;97.50;;;;;;8343725;28;20604;-71
2021/03/06 18:34:07;;;;;;;3.72;2.60;;;0.80;98.40;;;;;;8327911;28;20029;-71
2021/03/06 18:38:07;;;;;;;3.63;2.40;;;0.70;99.90;;;;;;8322485;28;20039;-71
2021/03/06 18:42:08;;;;;;;4.65;2.97;;;0.70;99.80;;;;;;8326837;28;20095;-71
2021/03/06 18:46:09;;;;;;;4.85;2.75;;;0.60;99.90;;;;;;8347022;28;20023;-71
2021/03/06 18:50:14;;;;;;;3.97;2.70;;;0.50;99.90;;;;;;8349911;28;20037;-71
2021/03/06 18:54:15;;;;;;;4.03;2.60;;;0.40;99.90;;;;;;8341344;28;20541;-74
2021/03/06 18:58:16;;;;;;;5.65;3.47;;;0.50;99.90;;;;;;8348648;28;20037;-70
2021/03/06 19:02:16;;;;;;;4.38;3.10;;;0.70;99.90;;;;;;8331138;28;20021;-72
2021/03/06 19:06:17;;;;;;;7.85;3.10;;;0.60;99.90;;;;;;8342380;28;20025;-72
2021/03/06 19:10:19;;;;;;;5.78;3.45;;;0.50;99.90;;;;;;8344746;28;20112;-72
2021/03/06 19:14:20;;;;;;;6.25;3.47;;;0.30;99.90;;;;;;8349442;28;20107;-72
2021/03/06 19:18:20;;;;;;;7.50;3.53;;;0.10;99.90;;;;;;8347453;28;20091;-72
2021/03/06 19:22:21;;;;;;;3.88;3.05;;;0.10;99.90;;;;;;8361858;28;20032;-72
2021/03/06 19:26:23;;;;;;;4.65;2.95;;;-0.20;99.90;;;;;;8362922;28;20032;-72
2021/03/06 19:30:25;;;;;;;5.15;3.30;;;0.10;99.90;;;;;;8342540;28;20178;-72
2021/03/06 19:34:27;;;;;;;7.18;3.55;;;0.10;99.90;;;;;;8337979;28;20025;-72
2021/03/06 19:38:28;;;;;;;4.43;3.20;;;0.00;99.90;;;;;;8334858;28;20046;-72
2021/03/06 19:42:28;;;;;;;7.15;3.45;;;-0.20;99.90;;;;;;8351613;28;20038;-72
2021/03/06 19:46:29;;;;;;;6.15;3.72;;;-0.10;99.90;;;;;;8341581;28;20049;-72
2021/03/06 19:50:29;;;;;;;7.22;3.50;;;-0.20;99.90;;;;;;8342395;28;20099;-72
2021/03/06 19:54:30;;;;;;;6.40;3.70;;;-0.20;99.90;;;;;;8360040;28;20044;-72
2021/03/06 19:58:31;;;;;;;6.25;3.70;;;-0.20;99.90;;;;;;8359902;28;20108;-72
2021/03/06 20:02:32;;;;;;;5.40;3.38;;;-0.30;99.90;;;;;;8357249;28;20099;-72
2021/03/06 20:06:32;;;;;;;6.65;3.20;;;-0.30;99.90;;;;;;8359285;28;20021;-72
2021/03/06 20:10:33;;;;;;;5.32;3.28;;;-0.20;99.90;;;;;;8356381;28;20025;-72
2021/03/06 20:14:37;;;;;;;5.93;3.50;;;-0.20;99.90;;;;;;8342498;28;20518;-72
2021/03/06 20:18:37;;;;;;;4.75;3.40;;;0.00;99.90;;;;;;8341677;28;20028;-71
2021/03/06 20:22:38;;;;;;;5.97;3.67;;;-0.10;99.90;;;;;;8359168;28;20533;-72
2021/03/06 20:26:38;;;;;;;5.13;3.88;;;-0.20;99.90;;;;;;8358891;28;20412;-72
2021/03/06 20:30:40;;;;;;;6.43;3.60;;;-0.50;99.90;;;;;;8340895;28;20017;-72
2021/03/06 20:34:41;;;;;;;6.57;3.63;;;-0.70;99.90;;;;;;8339046;28;20033;-72
2021/03/06 20:38:42;;;;;;;5.13;3.28;;;-0.70;99.90;;;;;;8341040;28;20072;-71
2021/03/06 20:42:42;;;;;;;7.55;3.65;;;-0.30;99.90;;;;;;8341902;28;20021;-71
2021/03/06 20:46:43;;;;;;;4.45;3.10;;;-0.20;99.90;;;;;;8351033;28;21861;-72
2021/03/06 20:50:44;;;;;;;6.88;3.75;;;-0.40;99.90;;;;;;8355896;28;20043;-71
2021/03/06 20:54:44;;;;;;;7.07;3.47;;;-0.60;99.90;;;;;;8359993;28;20060;-71
2021/03/06 20:58:45;;;;;;;5.93;3.45;;;-0.40;99.90;;;;;;8361895;28;20033;-72
2021/03/06 21:02:45;;;;;;;6.38;3.78;;;-0.50;99.90;;;;;;8363074;28;20021;-71
2021/03/06 21:06:46;;;;;;;7.53;3.53;;;-0.30;99.90;;;;;;8344140;28;20266;-71
2021/03/06 21:10:46;;;;;;;5.63;3.88;;;-0.30;99.90;;;;;;8344070;28;20017;-71
2021/03/06 21:14:48;;;;;;;5.65;3.50;;;-0.70;99.90;;;;;;8363020;28;20245;-71